createdAt,value
2023-03-18T00:01:17.004Z,43.40
2023-03-18T00:03:50.361Z,31.70
2023-03-18T00:06:23.448Z,43.40
2023-03-18T00:11:27.397Z,43.20
2023-03-18T00:13:59.099Z,39.40
2023-03-18T00:16:31.313Z,49.50
2023-03-18T00:19:04.139Z,42.00
2023-03-18T00:21:36.254Z,38.40
2023-03-18T00:24:08.394Z,46.80
2023-03-18T00:26:40.353Z,42.90
2023-03-18T00:29:12.366Z,41.80
2023-03-18T00:31:44.949Z,29.50
2023-03-18T00:36:50.728Z,40.50
2023-03-18T00:39:26.440Z,41.80
2023-03-18T00:42:02.131Z,46.20
2023-03-18T00:44:34.289Z,38.30
2023-03-18T00:47:06.493Z,42.60
2023-03-18T00:49:39.441Z,48.10
2023-03-18T00:52:11.311Z,46.20
2023-03-18T00:54:43.080Z,31.60
2023-03-18T00:57:15.607Z,41.00
2023-03-18T00:59:48.357Z,41.30
2023-03-18T01:02:20.651Z,37.30
2023-03-18T01:04:53.320Z,39.30
2023-03-18T01:09:56.050Z,38.00
2023-03-18T01:12:29.271Z,40.40
2023-03-18T01:15:01.429Z,41.20
2023-03-18T01:17:33.403Z,25.40
2023-03-18T01:20:06.242Z,36.50
2023-03-18T01:22:39.228Z,38.70
2023-03-18T01:25:13.547Z,39.40
2023-03-18T01:27:45.951Z,45.80
2023-03-18T01:30:19.820Z,37.00
2023-03-18T01:32:51.924Z,35.40
2023-03-18T01:35:25.687Z,39.80
2023-03-18T01:37:58.043Z,41.00
2023-03-18T01:40:30.567Z,36.50
2023-03-18T01:43:21.887Z,39.80
2023-03-18T01:45:55.571Z,36.10
2023-03-18T01:48:29.876Z,41.30
2023-03-18T01:51:10.324Z,45.00
2023-03-18T01:53:45.890Z,42.90
2023-03-18T01:56:19.856Z,40.80
2023-03-18T01:58:54.969Z,37.30
2023-03-18T02:01:33.606Z,40.60
2023-03-18T02:04:10.355Z,38.90
2023-03-18T02:06:43.659Z,37.90
2023-03-18T02:09:16.175Z,40.70
2023-03-18T02:11:50.692Z,41.00
2023-03-18T02:14:26.726Z,40.90
2023-03-18T02:17:03.784Z,37.50
2023-03-18T02:19:51.701Z,34.20
2023-03-18T02:22:31.030Z,33.20
2023-03-18T02:25:14.235Z,40.10
2023-03-18T02:27:50.196Z,40.40
2023-03-18T02:30:27.278Z,38.80
2023-03-18T02:33:00.975Z,44.30
2023-03-18T02:35:34.934Z,42.30
2023-03-18T02:38:07.452Z,38.40
2023-03-18T02:40:41.720Z,34.00
2023-03-18T02:43:26.261Z,34.40
2023-03-18T02:46:30.782Z,39.90
2023-03-18T02:49:06.696Z,43.00
2023-03-18T02:51:39.582Z,36.30
2023-03-18T02:54:13.347Z,44.40
2023-03-18T02:56:45.988Z,42.10
2023-03-18T02:59:19.230Z,41.50
2023-03-18T03:01:54.246Z,42.20
2023-03-18T03:04:27.815Z,44.50
2023-03-18T03:07:01.459Z,50.40
2023-03-18T03:09:41.889Z,42.90
2023-03-18T03:12:14.561Z,39.90
2023-03-18T03:14:49.874Z,37.20
2023-03-18T03:17:22.709Z,35.30
2023-03-18T03:19:55.344Z,33.00
2023-03-18T03:22:27.358Z,36.20
2023-03-18T03:24:59.590Z,34.60
2023-03-18T03:27:31.963Z,45.40
2023-03-18T03:30:03.680Z,37.00
2023-03-18T03:32:35.412Z,40.80
2023-03-18T03:35:09.398Z,33.10
2023-03-18T03:37:42.177Z,40.40
2023-03-18T03:40:16.988Z,34.90
2023-03-18T03:42:50.161Z,37.60
2023-03-18T03:45:22.624Z,30.90
2023-03-18T03:50:25.670Z,35.10
2023-03-18T03:52:58.263Z,30.20
2023-03-18T03:55:31.802Z,31.30
2023-03-18T03:58:03.761Z,28.40
2023-03-18T04:03:06.758Z,31.20
2023-03-18T04:05:38.818Z,38.10
2023-03-18T04:08:11.035Z,34.10
2023-03-18T04:10:43.824Z,37.30
2023-03-18T04:13:15.705Z,34.10
2023-03-18T04:15:48.091Z,30.30
2023-03-18T04:18:22.817Z,39.70
2023-03-18T04:20:55.167Z,27.70
2023-03-18T04:23:40.937Z,34.10
2023-03-18T04:26:13.057Z,29.90
2023-03-18T04:28:45.265Z,26.60
2023-03-18T04:31:19.291Z,32.90
2023-03-18T04:33:50.964Z,61.40
2023-03-18T04:36:23.990Z,26.70
2023-03-18T04:38:56.869Z,26.30
2023-03-18T04:41:29.366Z,38.90
2023-03-18T04:44:02.532Z,31.90
2023-03-18T04:46:42.207Z,33.10
2023-03-18T04:49:14.094Z,30.70
2023-03-18T04:51:46.499Z,23.50
2023-03-18T04:54:27.293Z,31.40
2023-03-18T04:56:59.513Z,35.70
2023-03-18T04:59:31.692Z,31.20
2023-03-18T05:02:06.598Z,32.30
2023-03-18T05:04:38.980Z,29.00
2023-03-18T05:07:13.489Z,31.80
2023-03-18T05:09:45.314Z,36.00
2023-03-18T05:12:18.264Z,22.10
2023-03-18T05:14:50.187Z,31.50
2023-03-18T05:17:22.017Z,31.60
2023-03-18T05:20:00.245Z,31.80
2023-03-18T05:22:32.943Z,29.20
2023-03-18T05:25:12.708Z,33.10
2023-03-18T05:27:45.901Z,32.00
2023-03-18T05:30:23.882Z,31.40
2023-03-18T05:32:58.583Z,31.20
2023-03-18T05:35:47.224Z,25.90
2023-03-18T05:38:19.801Z,27.20
2023-03-18T05:40:51.719Z,26.50
2023-03-18T05:43:28.363Z,32.30
2023-03-18T05:46:01.945Z,27.00
2023-03-18T05:48:43.568Z,29.50
2023-03-18T05:51:16.208Z,35.60
2023-03-18T05:53:47.921Z,29.00
2023-03-18T05:56:25.967Z,30.70
2023-03-18T05:59:01.549Z,31.50
2023-03-18T06:01:41.211Z,28.60
2023-03-18T06:04:13.718Z,32.00
2023-03-18T06:09:17.444Z,30.30
2023-03-18T06:11:50.644Z,31.30
2023-03-18T06:14:22.554Z,35.90
2023-03-18T06:16:55.631Z,30.20
2023-03-18T06:19:28.534Z,29.20
2023-03-18T06:24:30.698Z,31.50
2023-03-18T06:27:04.799Z,25.40
2023-03-18T06:29:37.834Z,34.10
2023-03-18T06:32:14.272Z,30.30
2023-03-18T06:34:46.131Z,32.20
2023-03-18T06:37:17.931Z,19.70
2023-03-18T06:39:50.494Z,32.10
2023-03-18T06:42:22.907Z,28.60
2023-03-18T06:45:01.484Z,32.20
2023-03-18T06:47:46.473Z,25.80
2023-03-18T06:50:18.719Z,29.00
2023-03-18T06:52:50.553Z,27.10
2023-03-18T06:55:25.760Z,30.70
2023-03-18T06:57:58.010Z,25.00
2023-03-18T07:00:35.986Z,26.30
2023-03-18T07:03:09.043Z,28.40
2023-03-18T07:05:42.187Z,30.60
2023-03-18T07:08:15.634Z,28.10
2023-03-18T07:10:47.481Z,29.70
2023-03-18T07:15:50.945Z,28.20
2023-03-18T07:18:23.879Z,31.70
2023-03-18T07:20:55.699Z,28.00
2023-03-18T07:23:27.932Z,20.30
2023-03-18T07:26:02.290Z,23.90
2023-03-18T07:28:34.213Z,30.50
2023-03-18T07:31:06.260Z,29.90
2023-03-18T07:33:38.613Z,20.70
2023-03-18T07:36:11.060Z,29.10
2023-03-18T07:38:43.058Z,24.50
2023-03-18T07:41:15.191Z,26.40
2023-03-18T07:43:48.613Z,29.70
2023-03-18T07:46:20.957Z,21.90
2023-03-18T07:48:52.942Z,24.50
2023-03-18T07:51:25.170Z,22.30
2023-03-18T07:53:57.401Z,30.10
2023-03-18T07:56:29.409Z,21.40
2023-03-18T07:59:01.534Z,24.10
2023-03-18T08:01:33.688Z,24.00
2023-03-18T08:04:06.010Z,24.30
2023-03-18T08:06:39.109Z,22.40
2023-03-18T08:09:11.008Z,21.10
2023-03-18T08:11:43.276Z,22.00
2023-03-18T08:14:15.248Z,21.50
2023-03-18T08:16:47.834Z,20.20
2023-03-18T08:19:19.835Z,14.90
2023-03-18T08:21:51.555Z,16.70
2023-03-18T08:24:24.494Z,18.00
2023-03-18T08:26:56.657Z,18.70
2023-03-18T08:29:28.457Z,11.20
2023-03-18T08:32:00.257Z,10.20
2023-03-18T08:34:32.438Z,14.20
2023-03-18T08:37:05.050Z,18.00
2023-03-18T08:39:36.896Z,14.90
2023-03-18T08:42:10.339Z,17.80
2023-03-18T08:44:43.437Z,14.60
2023-03-18T08:47:15.673Z,15.50
2023-03-18T08:49:49.214Z,15.00
2023-03-18T08:52:22.749Z,14.90
2023-03-18T08:54:54.500Z,15.00
2023-03-18T08:57:27.838Z,11.50
2023-03-18T08:59:59.944Z,18.20
2023-03-18T09:02:31.926Z,11.80
2023-03-18T09:05:03.858Z,14.90
2023-03-18T09:07:36.229Z,15.80
2023-03-18T09:10:10.217Z,16.10
2023-03-18T09:12:42.176Z,16.00
2023-03-18T09:15:15.991Z,16.90
2023-03-18T09:18:03.701Z,21.20
2023-03-18T09:20:40.465Z,21.10
2023-03-18T09:23:14.055Z,18.70
2023-03-18T09:25:46.975Z,16.20
2023-03-18T09:28:19.333Z,18.60
2023-03-18T09:30:51.293Z,17.70
2023-03-18T09:33:23.245Z,12.00
2023-03-18T09:35:55.422Z,20.80
2023-03-18T09:38:27.791Z,21.60
2023-03-18T09:41:08.009Z,17.30
2023-03-18T09:43:51.599Z,20.70
2023-03-18T09:46:32.942Z,18.60
2023-03-18T09:49:35.206Z,20.80
2023-03-18T09:52:19.410Z,20.00
2023-03-18T09:54:58.773Z,17.50
2023-03-18T09:57:34.595Z,15.00
2023-03-18T10:00:17.440Z,16.00
2023-03-18T10:02:54.190Z,20.70
2023-03-18T10:05:32.761Z,20.10
2023-03-18T10:08:09.085Z,15.80
2023-03-18T10:10:46.812Z,18.20
2023-03-18T10:13:23.582Z,19.60
2023-03-18T10:15:58.672Z,16.80
2023-03-18T10:18:34.800Z,16.30
2023-03-18T10:21:21.877Z,14.10
2023-03-18T10:24:03.643Z,14.60
2023-03-18T10:26:43.580Z,20.40
2023-03-18T10:29:33.366Z,17.40
2023-03-18T10:32:21.150Z,14.00
2023-03-18T10:35:03.958Z,14.50
2023-03-18T10:37:50.104Z,21.40
2023-03-18T10:40:25.595Z,16.70
2023-03-18T10:42:58.190Z,17.00
2023-03-18T10:45:33.077Z,18.70
2023-03-18T10:48:12.645Z,17.20
2023-03-18T10:50:50.163Z,14.20
2023-03-18T10:53:27.094Z,16.40
2023-03-18T10:56:06.943Z,18.10
2023-03-18T10:58:40.661Z,15.20
2023-03-18T11:01:19.092Z,18.30
2023-03-18T11:03:56.096Z,15.20
2023-03-18T11:06:36.815Z,20.30
2023-03-18T11:09:12.510Z,19.20
2023-03-18T11:11:45.976Z,16.30
2023-03-18T11:14:20.960Z,15.80
2023-03-18T11:17:00.335Z,13.40
2023-03-18T11:19:39.176Z,17.40
2023-03-18T11:22:22.511Z,13.80
2023-03-18T11:25:17.095Z,20.20
2023-03-18T11:27:51.288Z,16.20
2023-03-18T11:30:35.034Z,15.30
2023-03-18T11:33:15.407Z,14.10
2023-03-18T11:35:53.187Z,18.20
2023-03-18T11:38:29.305Z,20.20
2023-03-18T11:41:13.496Z,22.80
2023-03-18T11:43:59.264Z,19.00
2023-03-18T11:46:37.547Z,19.20
2023-03-18T11:49:14.112Z,20.00
2023-03-18T11:51:53.294Z,19.80
2023-03-18T11:54:45.226Z,17.90
2023-03-18T11:57:25.592Z,17.00
2023-03-18T12:00:07.440Z,16.00
2023-03-18T12:02:59.076Z,17.90
2023-03-18T12:05:51.976Z,18.20
2023-03-18T12:08:33.053Z,19.90
2023-03-18T12:11:12.897Z,16.70
2023-03-18T12:13:58.894Z,19.50
2023-03-18T12:16:50.593Z,25.40
2023-03-18T12:19:40.861Z,15.30
2023-03-18T12:22:40.941Z,15.00
2023-03-18T12:25:32.829Z,20.90
2023-03-18T12:28:17.030Z,14.50
2023-03-18T12:31:07.929Z,18.30
2023-03-18T12:33:53.355Z,16.80
2023-03-18T12:36:45.055Z,16.20
2023-03-18T12:39:53.762Z,15.90
2023-03-18T12:42:38.988Z,17.30
2023-03-18T12:45:17.015Z,19.00
2023-03-18T12:47:54.224Z,21.70
2023-03-18T12:50:33.707Z,19.90
2023-03-18T12:53:14.837Z,23.40
2023-03-18T12:55:54.025Z,20.80
2023-03-18T12:58:30.004Z,18.10
2023-03-18T13:01:07.285Z,20.00
2023-03-18T13:03:41.062Z,23.10
2023-03-18T13:06:18.740Z,19.80
2023-03-18T13:09:02.369Z,19.70
2023-03-18T13:11:46.640Z,19.60
2023-03-18T13:14:26.280Z,17.80
2023-03-18T13:16:59.746Z,19.10
2023-03-18T13:19:32.385Z,16.20
2023-03-18T13:22:18.417Z,18.20
2023-03-18T13:25:02.839Z,20.10
2023-03-18T13:27:46.290Z,17.00
2023-03-18T13:30:28.323Z,20.50
2023-03-18T13:33:17.656Z,13.80
2023-03-18T13:36:10.388Z,12.80
2023-03-18T13:38:55.595Z,15.30
2023-03-18T13:42:04.542Z,16.40
2023-03-18T13:44:43.348Z,11.80
2023-03-18T13:47:19.665Z,16.80
2023-03-18T13:50:01.557Z,11.90
2023-03-18T13:52:42.002Z,14.50
2023-03-18T13:55:27.582Z,17.30
2023-03-18T13:58:10.507Z,15.50
2023-03-18T14:03:23.223Z,16.60
2023-03-18T14:06:22.892Z,17.60
2023-03-18T14:08:55.507Z,19.80
2023-03-18T14:11:52.979Z,18.50
2023-03-18T14:15:09.395Z,15.10
2023-03-18T14:17:55.738Z,15.90
2023-03-18T14:20:40.636Z,19.80
2023-03-18T14:23:39.295Z,18.90
2023-03-18T14:26:21.890Z,18.30
2023-03-18T14:29:03.554Z,20.20
2023-03-18T14:32:01.026Z,16.50
2023-03-18T14:34:35.872Z,16.20
2023-03-18T14:37:30.361Z,18.10
2023-03-18T14:40:15.805Z,17.50
2023-03-18T14:42:56.794Z,19.10
2023-03-18T14:45:33.438Z,16.90
2023-03-18T14:48:13.540Z,27.40
2023-03-18T14:50:50.549Z,18.60
2023-03-18T14:53:30.056Z,22.50
2023-03-18T14:56:04.319Z,18.30
2023-03-18T14:58:50.549Z,20.60
2023-03-18T15:01:30.242Z,16.70
2023-03-18T15:04:03.810Z,23.20
2023-03-18T15:06:36.640Z,20.00
2023-03-18T15:09:15.520Z,22.20
2023-03-18T15:11:49.046Z,16.90
2023-03-18T15:14:26.958Z,19.10
2023-03-18T15:17:00.943Z,26.40
2023-03-18T15:19:33.648Z,20.00
2023-03-18T15:22:08.633Z,17.30
2023-03-18T15:24:40.770Z,22.90
2023-03-18T15:27:19.512Z,20.10
2023-03-18T15:29:54.622Z,25.40
2023-03-18T15:32:29.533Z,24.40
2023-03-18T15:35:16.623Z,19.00
2023-03-18T15:38:03.220Z,19.70
2023-03-18T15:40:36.668Z,20.30
2023-03-18T15:43:29.830Z,20.60
2023-03-18T15:48:37.879Z,22.10
2023-03-18T15:51:28.177Z,21.10
2023-03-18T15:54:04.985Z,23.40
2023-03-18T15:56:44.084Z,18.50
2023-03-18T15:59:19.929Z,18.30
2023-03-18T16:01:52.643Z,20.10
2023-03-18T16:04:26.005Z,21.20
2023-03-18T16:06:59.449Z,22.30
2023-03-18T16:09:34.690Z,21.90
2023-03-18T16:12:14.402Z,22.90
2023-03-18T16:14:47.627Z,19.60
2023-03-18T16:17:22.207Z,20.50
2023-03-18T16:19:56.970Z,25.50
2023-03-18T16:22:30.835Z,21.10
2023-03-18T16:25:04.601Z,25.00
2023-03-18T16:27:40.172Z,27.40
2023-03-18T16:30:22.722Z,26.70
2023-03-18T16:32:56.625Z,21.50
2023-03-18T16:35:33.787Z,27.50
2023-03-18T16:38:06.414Z,23.90
2023-03-18T16:40:38.415Z,28.20
2023-03-18T16:45:49.380Z,24.50
2023-03-18T16:48:23.780Z,20.90
2023-03-18T16:50:57.442Z,24.00
2023-03-18T16:53:31.901Z,25.90
2023-03-18T16:56:16.076Z,20.00
2023-03-18T16:58:48.216Z,25.60
2023-03-18T17:01:21.506Z,24.60
2023-03-18T17:03:54.009Z,38.70
2023-03-18T17:08:57.041Z,28.80
2023-03-18T17:11:29.185Z,30.50
2023-03-18T17:16:32.860Z,32.90
2023-03-18T17:19:05.372Z,30.80
2023-03-18T17:21:38.031Z,30.60
2023-03-18T17:24:10.746Z,29.00
2023-03-18T17:29:24.443Z,35.50
2023-03-18T17:31:56.970Z,34.60
2023-03-18T17:34:29.244Z,26.20
2023-03-18T17:37:01.083Z,30.40
2023-03-18T17:39:32.951Z,23.50
2023-03-18T17:42:05.992Z,39.60
2023-03-18T17:44:38.462Z,31.60
2023-03-18T17:47:11.395Z,33.30
2023-03-18T17:49:43.672Z,33.50
2023-03-18T17:52:20.786Z,28.20
2023-03-18T17:54:52.607Z,31.40
2023-03-18T17:57:24.386Z,34.80
2023-03-18T17:59:57.722Z,33.30
2023-03-18T18:02:29.907Z,33.80
2023-03-18T18:05:01.768Z,35.50
2023-03-18T18:07:33.915Z,38.20
2023-03-18T18:10:06.915Z,36.60
2023-03-18T18:12:47.226Z,38.20
2023-03-18T18:15:27.796Z,31.30
2023-03-18T18:18:01.300Z,32.90
2023-03-18T18:20:34.156Z,35.60
2023-03-18T18:23:07.382Z,36.90
2023-03-18T18:25:39.389Z,33.40
2023-03-18T18:28:21.132Z,39.10
2023-03-18T18:30:52.990Z,35.10
2023-03-18T18:33:25.193Z,44.30
2023-03-18T18:35:57.749Z,41.70
2023-03-18T18:38:30.785Z,37.60
2023-03-18T18:41:03.511Z,43.90
2023-03-18T18:43:36.484Z,40.70
2023-03-18T18:46:14.665Z,38.60
2023-03-18T18:48:50.488Z,42.10
2023-03-18T18:51:25.316Z,42.40
2023-03-18T18:53:57.426Z,36.80
2023-03-18T18:56:34.083Z,42.20
2023-03-18T18:59:18.628Z,46.40
2023-03-18T19:01:50.649Z,41.60
2023-03-18T19:04:23.602Z,46.80
2023-03-18T19:06:56.176Z,43.00
2023-03-18T19:09:28.733Z,50.50
2023-03-18T19:12:00.553Z,47.80
2023-03-18T19:14:32.811Z,48.70
2023-03-18T19:17:05.328Z,45.10
2023-03-18T19:22:07.963Z,48.20
2023-03-18T19:24:40.934Z,46.70
2023-03-18T19:27:21.768Z,43.20
2023-03-18T19:29:55.602Z,48.60
2023-03-18T19:32:28.512Z,46.20
2023-03-18T19:35:00.562Z,46.60
2023-03-18T19:37:33.420Z,38.50
2023-03-18T19:40:24.296Z,52.70
2023-03-18T19:42:56.451Z,54.20
2023-03-18T19:45:28.595Z,50.30
2023-03-18T19:48:01.118Z,48.50
2023-03-18T19:50:33.112Z,50.70
2023-03-18T19:53:13.052Z,51.80
2023-03-18T19:55:46.087Z,47.80
2023-03-18T19:58:24.488Z,55.20
2023-03-18T20:00:56.465Z,56.30
2023-03-18T20:03:28.834Z,52.80
2023-03-18T20:06:01.665Z,56.10
2023-03-18T20:11:04.121Z,55.60
2023-03-18T20:13:35.962Z,51.60
2023-03-18T20:16:12.234Z,57.40
2023-03-18T20:18:44.865Z,58.60
2023-03-18T20:23:53.972Z,51.30
2023-03-18T20:26:25.858Z,64.90
2023-03-18T20:28:58.649Z,61.00
2023-03-18T20:31:30.829Z,55.10
2023-03-18T20:34:02.849Z,62.60
2023-03-18T20:36:35.152Z,55.90
2023-03-18T20:39:07.288Z,63.30
2023-03-18T20:41:39.815Z,63.70
2023-03-18T20:44:14.791Z,62.80
2023-03-18T20:46:46.698Z,56.40
2023-03-18T20:49:19.700Z,49.00
2023-03-18T20:51:51.638Z,54.40
2023-03-18T20:54:28.951Z,46.50
2023-03-18T20:57:01.027Z,57.80
2023-03-18T20:59:32.891Z,65.00
2023-03-18T21:02:04.752Z,65.00
2023-03-18T21:04:37.162Z,68.20
2023-03-18T21:07:14.150Z,66.70
2023-03-18T21:09:46.405Z,66.50
2023-03-18T21:12:20.970Z,66.90
2023-03-18T21:14:52.974Z,65.90
2023-03-18T21:17:27.345Z,47.70
2023-03-18T21:20:15.340Z,61.80
2023-03-18T21:22:52.735Z,64.90
2023-03-18T21:25:26.890Z,69.00
2023-03-18T21:27:58.916Z,71.70
2023-03-18T21:30:31.474Z,52.70
2023-03-18T21:33:04.159Z,68.00
2023-03-18T21:38:08.495Z,62.60
2023-03-18T21:40:40.814Z,65.10
2023-03-18T21:43:30.232Z,64.50
2023-03-18T21:46:03.441Z,65.60
2023-03-18T21:48:35.361Z,62.10
2023-03-18T21:51:08.630Z,42.90
2023-03-18T21:53:40.746Z,75.40
2023-03-18T21:56:13.413Z,70.00
2023-03-18T21:58:45.277Z,74.10
2023-03-18T22:01:20.906Z,67.30
2023-03-18T22:03:53.921Z,73.60
2023-03-18T22:06:25.841Z,68.90
2023-03-18T22:08:57.921Z,64.50
2023-03-18T22:11:30.036Z,46.70
2023-03-18T22:14:01.911Z,69.00
2023-03-18T22:16:33.855Z,69.70
2023-03-18T22:19:05.691Z,75.90
2023-03-18T22:21:37.722Z,72.10
2023-03-18T22:24:14.725Z,79.80
2023-03-18T22:26:46.586Z,68.00
2023-03-18T22:29:18.853Z,73.30
2023-03-18T22:31:50.702Z,69.80
2023-03-18T22:34:25.479Z,80.60
2023-03-18T22:36:57.355Z,68.50
2023-03-18T22:39:29.241Z,69.50
2023-03-18T22:42:01.142Z,82.10
2023-03-18T22:44:33.016Z,75.10
2023-03-18T22:47:05.626Z,64.60
2023-03-18T22:49:37.415Z,74.90
2023-03-18T22:52:14.642Z,76.70
2023-03-18T22:54:47.023Z,74.70
2023-03-18T22:57:22.197Z,74.30
2023-03-18T22:59:54.606Z,76.20
2023-03-18T23:02:28.545Z,78.50
2023-03-18T23:05:00.502Z,75.20
2023-03-18T23:07:34.374Z,74.90
2023-03-18T23:10:07.330Z,71.90
2023-03-18T23:15:14.624Z,76.80
2023-03-18T23:17:47.575Z,79.90
2023-03-18T23:20:20.587Z,86.20
2023-03-18T23:22:52.358Z,81.50
2023-03-18T23:25:24.603Z,82.00
2023-03-18T23:27:56.572Z,89.10
2023-03-18T23:30:28.659Z,87.80
2023-03-18T23:33:00.871Z,80.50
2023-03-18T23:35:33.304Z,81.50
2023-03-18T23:38:05.812Z,78.80
2023-03-18T23:40:38.025Z,87.20
2023-03-18T23:43:09.913Z,62.00
2023-03-18T23:45:42.010Z,86.90
2023-03-18T23:48:14.150Z,91.80
2023-03-18T23:50:46.543Z,86.50
2023-03-18T23:53:18.374Z,86.10
2023-03-18T23:55:52.283Z,82.70
2023-03-18T23:58:24.173Z,79.40
